Pine Bluff, Arkansas
Current Conditions -  °F | °C
As of 2:53 PM on Tuesday 27 Jan 2015 (Local Time) from KPBF Reporting Station
Clear Clear  
Wind Chill: 61°   Ceiling: Unl
Heat Index: 61°   Visibility: 10mi
Dew Point: 34°   Wind: 5mph
Humidity: 36%   Direction: 40°NE
Pressure: 30.13"   Gusts: NA
Location:  34.22°N, 92°W
Report Text: KPBF 272053Z AUTO 04004KT 10SM CLR 16/01 A3013 RMK AO2 SLP202 T01610011 55008
Loading
Personal Weather Stations






























Interactive Weather Map New forecast layout! Learn more

10-Day Weather Forecast

Advertisements
Track Severe Weather on mobile